Time;durP1;ratioP1;P1;durP2;ratioP2;P2;SDS_P1;SDS_P2;PMS_P1;PMS_P2;Temp;Humidity;BMP_temperature;BMP_pressure;BME280_temperature;BME280_humidity;BME280_pressure;Samples;Min_cycle;Max_cycle;Signal;HPM_P1;HPM_P2
2023/03/04 00:00:48;;;;;;;;;22.00;19.00;25.00;33.70;;;;;;109549;1260;49868;-65
2023/03/04 00:03:20;;;;;;;;;23.00;18.00;25.00;34.20;;;;;;109582;1255;49772;-66
2023/03/04 00:05:46;;;;;;;;;18.50;16.50;24.90;34.20;;;;;;109579;1260;46110;-66
2023/03/04 00:08:12;;;;;;;;;19.50;18.50;24.90;34.20;;;;;;109573;1259;56714;-65
2023/03/04 00:10:39;;;;;;;;;20.00;16.00;24.90;33.80;;;;;;109544;1255;54160;-66
2023/03/04 00:13:05;;;;;;;;;21.50;20.00;24.80;34.20;;;;;;109710;1259;49229;-65
2023/03/04 00:15:31;;;;;;;;;20.00;17.00;24.70;34.20;;;;;;109550;1259;48872;-65
2023/03/04 00:17:57;;;;;;;;;22.00;18.00;24.70;34.30;;;;;;109560;1255;46077;-63
2023/03/04 00:20:23;;;;;;;;;18.00;17.00;24.70;34.60;;;;;;109597;1259;56558;-65
2023/03/04 00:22:49;;;;;;;;;21.00;17.67;24.60;34.30;;;;;;109646;1255;53482;-67
2023/03/04 00:25:16;;;;;;;;;22.50;18.50;24.60;34.40;;;;;;109575;1260;49867;-66
2023/03/04 00:27:42;;;;;;;;;27.00;19.00;24.50;34.20;;;;;;109594;1255;50358;-70
2023/03/04 00:30:09;;;;;;;;;24.67;21.67;24.40;34.40;;;;;;109674;1255;45582;-67
2023/03/04 00:32:35;;;;;;;;;20.00;19.00;24.40;34.50;;;;;;109792;1256;55670;-67
2023/03/04 00:35:02;;;;;;;;;23.00;19.00;24.40;34.60;;;;;;109786;1255;53388;-66
2023/03/04 00:37:28;;;;;;;;;19.50;16.50;24.40;34.60;;;;;;109783;1255;50459;-65
2023/03/04 00:39:54;;;;;;;;;20.00;19.00;24.30;34.50;;;;;;109676;1257;49662;-68
2023/03/04 00:42:20;;;;;;;;;27.00;21.00;24.30;34.60;;;;;;109897;1255;46243;-66
2023/03/04 00:44:48;;;;;;;;;22.00;21.00;24.30;34.60;;;;;;109583;1255;55441;-66
2023/03/04 00:47:14;;;;;;;;;;;24.20;34.60;;;;;;109664;1255;54395;-66
2023/03/04 00:49:40;;;;;;;;;;;24.20;34.60;;;;;;109635;1255;49398;-64
2023/03/04 00:52:07;;;;;;;;;22.50;18.50;24.20;34.70;;;;;;109741;1260;49744;-65
2023/03/04 00:54:33;;;;;;;;;22.00;20.00;24.10;34.60;;;;;;109585;1257;45918;-64
2023/03/04 00:57:00;;;;;;;;;17.00;14.00;24.10;34.70;;;;;;109571;1255;55497;-65
2023/03/04 00:59:26;;;;;;;;;24.50;22.00;24.10;34.70;;;;;;109584;1259;54670;-63
2023/03/04 01:01:52;;;;;;;;;20.00;18.00;24.00;34.70;;;;;;109647;1259;49054;-63
2023/03/04 01:04:19;;;;;;;;;21.00;18.00;24.00;34.80;;;;;;109583;1259;50550;-64
2023/03/04 01:06:45;;;;;;;;;25.00;19.00;24.00;34.80;;;;;;109579;1255;46063;-64
2023/03/04 01:09:11;;;;;;;;;19.00;16.00;23.90;34.70;;;;;;109554;1260;55466;-64
2023/03/04 01:11:38;;;;;;;;;18.00;15.00;23.90;35.00;;;;;;109692;1255;55006;-64
2023/03/04 01:14:04;;;;;;;;;23.33;20.33;23.80;34.70;;;;;;109649;1260;49779;-65
2023/03/04 01:16:30;;;;;;;;;25.50;18.00;23.80;34.80;;;;;;109605;1255;49133;-64
2023/03/04 01:18:56;;;;;;;;;23.00;20.00;23.80;35.00;;;;;;109590;1260;46256;-66
2023/03/04 01:21:23;;;;;;;;;21.00;17.00;23.80;34.90;;;;;;109621;1260;55961;-66
2023/03/04 01:23:49;;;;;;;;;23.00;19.00;23.70;35.00;;;;;;109566;1255;54419;-65
2023/03/04 01:26:15;;;;;;;;;22.00;19.00;23.70;34.90;;;;;;109616;1258;49920;-65
2023/03/04 01:28:41;;;;;;;;;17.00;15.00;23.60;34.80;;;;;;109778;1260;49837;-65
2023/03/04 01:31:08;;;;;;;;;20.33;17.33;23.60;35.10;;;;;;109693;1259;45283;-66
2023/03/04 01:33:34;;;;;;;;;18.50;16.00;23.60;34.90;;;;;;109684;1255;55694;-65
2023/03/04 01:36:00;;;;;;;;;23.00;17.00;23.60;35.10;;;;;;109779;1259;54620;-64
2023/03/04 01:38:26;;;;;;;;;19.00;16.50;23.50;34.80;;;;;;109584;1259;49381;-65
2023/03/04 01:40:53;;;;;;;;;18.00;17.00;23.50;34.90;;;;;;109580;1255;50378;-64
2023/03/04 01:43:25;;;;;;;;;23.50;18.00;23.50;34.90;;;;;;109546;1257;45885;-66
2023/03/04 01:45:52;;;;;;;;;21.00;16.00;23.50;35.10;;;;;;109673;1260;56013;-67
2023/03/04 01:48:24;;;;;;;;;18.00;15.00;23.40;35.70;;;;;;109548;1261;54736;-68
2023/03/04 01:50:50;;;;;;;;;20.00;18.50;23.40;35.50;;;;;;109502;1257;49470;-67
2023/03/04 01:53:20;;;;;;;;;18.00;16.00;23.40;35.50;;;;;;109606;1260;49836;-68
2023/03/04 01:55:47;;;;;;;;;19.00;17.00;23.30;35.30;;;;;;109556;1257;45911;-68
2023/03/04 01:58:14;;;;;;;;;26.00;22.00;23.30;35.50;;;;;;109484;1257;56557;-66
2023/03/04 02:00:40;;;;;;;;;20.33;16.00;23.30;35.30;;;;;;109575;1259;54046;-65
2023/03/04 02:03:14;;;;;;;;;22.50;19.00;23.30;35.30;;;;;;109713;1255;49820;-66
2023/03/04 02:05:43;;;;;;;;;19.00;16.00;23.30;35.30;;;;;;109626;1257;49499;-67
2023/03/04 02:08:11;;;;;;;;;22.50;19.00;23.20;35.20;;;;;;109541;1257;45839;-67
2023/03/04 02:10:38;;;;;;;;;18.00;15.50;23.20;35.20;;;;;;109646;1255;56173;-66
2023/03/04 02:13:05;;;;;;;;;20.00;16.00;23.20;35.30;;;;;;109795;1255;53955;-67
2023/03/04 02:15:31;;;;;;;;;17.00;16.00;23.10;35.40;;;;;;109566;1255;50002;-67
2023/03/04 02:17:58;;;;;;;;;18.00;17.00;23.10;35.40;;;;;;109849;1255;49197;-68
2023/03/04 02:21:16;;;;;;;;;22.50;18.50;23.10;35.20;;;;;;109611;1259;45880;-68
2023/03/04 02:24:14;;;;;;;;;21.00;17.50;23.10;35.20;;;;;;109491;1255;56325;-68
2023/03/04 02:26:42;;;;;;;;;18.50;17.00;23.10;35.20;;;;;;109625;1259;54363;-68
2023/03/04 02:29:10;;;;;;;;;19.00;17.33;23.10;35.20;;;;;;109783;1255;50315;-71
2023/03/04 02:31:38;;;;;;;;;21.67;18.33;23.00;35.10;;;;;;109707;1255;49718;-67
2023/03/04 02:34:09;;;;;;;;;18.00;16.50;23.00;35.10;;;;;;109678;1260;45335;-68
2023/03/04 02:36:36;;;;;;;;;20.00;19.00;23.00;35.30;;;;;;109686;1260;55027;-68
2023/03/04 02:39:06;;;;;;;;;21.50;18.00;23.00;35.10;;;;;;109727;1260;54184;-67
2023/03/04 02:41:33;;;;;;;;;22.00;17.00;23.00;35.40;;;;;;109718;1259;50566;-65
2023/03/04 02:43:59;;;;;;;;;19.50;16.50;22.90;35.10;;;;;;109666;1255;50181;-66
2023/03/04 02:46:26;;;;;;;;;19.00;17.00;22.90;35.10;;;;;;109599;1255;46172;-65
2023/03/04 02:48:52;;;;;;;;;17.00;16.00;22.90;35.10;;;;;;109581;1255;55165;-69
2023/03/04 02:51:19;;;;;;;;;21.00;17.00;22.80;35.10;;;;;;109702;1260;53966;-67
2023/03/04 02:53:45;;;;;;;;;20.00;17.00;22.80;35.10;;;;;;109584;1255;49128;-66
2023/03/04 02:56:11;;;;;;;;;21.00;16.50;22.80;35.40;;;;;;109590;1259;49792;-66
2023/03/04 02:58:39;;;;;;;;;17.00;15.00;22.80;35.20;;;;;;109622;1255;46739;-66
2023/03/04 03:01:05;;;;;;;;;24.00;21.00;22.70;35.10;;;;;;109619;1255;55642;-67
2023/03/04 03:03:31;;;;;;;;;17.00;14.50;22.70;35.20;;;;;;109686;1255;53908;-66
2023/03/04 03:05:58;;;;;;;;;21.50;17.50;22.70;35.20;;;;;;109584;1255;50330;-66
2023/03/04 03:08:24;;;;;;;;;20.00;17.00;22.70;35.20;;;;;;109606;1255;48872;-67
2023/03/04 03:10:50;;;;;;;;;20.00;16.00;22.60;35.20;;;;;;109591;1255;45268;-67
2023/03/04 03:13:16;;;;;;;;;19.00;15.00;22.60;35.20;;;;;;109621;1259;55655;-67
2023/03/04 03:15:43;;;;;;;;;19.50;17.00;22.60;34.80;;;;;;109551;1257;56271;-67
2023/03/04 03:18:11;;;;;;;;;21.00;18.00;22.60;35.20;;;;;;109676;1255;49782;-66
2023/03/04 03:20:37;;;;;;;;;19.50;18.00;22.50;35.20;;;;;;109793;1255;50299;-66
2023/03/04 03:23:04;;;;;;;;;18.00;17.00;22.50;35.20;;;;;;109692;1259;45764;-63
2023/03/04 03:25:30;;;;;;;;;19.00;17.50;22.50;35.20;;;;;;109568;1256;56770;-63
2023/03/04 03:27:56;;;;;;;;;16.00;15.00;22.50;35.20;;;;;;109671;1259;54488;-63
2023/03/04 03:30:23;;;;;;;;;20.50;19.00;22.40;35.20;;;;;;109585;1260;49779;-64
2023/03/04 03:32:49;;;;;;;;;20.00;18.00;22.40;35.20;;;;;;109636;1259;49168;-64
2023/03/04 03:35:15;;;;;;;;;17.00;16.00;22.40;35.30;;;;;;109592;1255;45417;-63
2023/03/04 03:37:42;;;;;;;;;21.00;19.00;22.40;35.30;;;;;;109680;1255;56331;-64
2023/03/04 03:40:09;;;;;;;;;20.00;18.50;22.40;35.30;;;;;;109813;1260;53627;-64
2023/03/04 03:42:35;;;;;;;;;20.00;17.00;22.40;35.30;;;;;;109854;1260;50070;-63
2023/03/04 03:45:02;;;;;;;;;21.00;17.00;22.30;35.30;;;;;;109660;1259;49092;-63
2023/03/04 03:47:28;;;;;;;;;17.00;16.00;22.30;35.30;;;;;;109593;1259;46182;-63
2023/03/04 03:49:54;;;;;;;;;19.00;16.00;22.30;35.60;;;;;;109708;1259;55216;-63
2023/03/04 03:52:20;;;;;;;;;18.00;15.00;22.30;35.40;;;;;;109946;1257;53863;-63
2023/03/04 03:54:47;;;;;;;;;22.33;19.00;22.20;35.30;;;;;;109712;1259;49985;-64
2023/03/04 03:57:13;;;;;;;;;20.00;16.00;22.20;35.30;;;;;;109795;1256;49651;-64
2023/03/04 03:59:39;;;;;;;;;18.00;16.00;22.20;35.30;;;;;;109718;1255;46118;-63
2023/03/04 04:02:05;;;;;;;;;19.00;16.00;22.20;35.40;;;;;;109697;1255;55675;-63
2023/03/04 04:04:32;;;;;;;;;21.00;18.00;22.20;35.40;;;;;;109595;1255;54136;-63
2023/03/04 04:06:58;;;;;;;;;20.00;16.00;22.20;35.40;;;;;;109768;1259;49788;-64
2023/03/04 04:09:25;;;;;;;;;15.50;13.50;22.20;35.40;;;;;;109724;1259;49757;-66
2023/03/04 04:11:51;;;;;;;;;18.00;14.00;22.20;35.50;;;;;;109778;1259;46255;-66
2023/03/04 04:14:17;;;;;;;;;21.00;17.00;22.20;35.50;;;;;;109727;1260;55307;-66
2023/03/04 04:16:43;;;;;;;;;17.00;15.00;22.30;35.60;;;;;;109752;1260;53958;-66
2023/03/04 04:19:28;;;;;;;;;21.00;19.00;22.40;35.70;;;;;;109655;1258;49119;-66
2023/03/04 04:21:54;;;;;;;;;17.00;15.33;22.50;35.90;;;;;;109687;1255;49176;-66
2023/03/04 04:24:20;;;;;;;;;16.00;15.00;22.60;36.10;;;;;;109558;1260;45512;-64
2023/03/04 04:26:47;;;;;;;;;16.00;14.33;22.70;36.20;;;;;;109574;1255;55804;-64
2023/03/04 04:29:14;;;;;;;;;20.00;18.00;22.80;36.10;;;;;;109588;1255;53894;-64
2023/03/04 04:31:40;;;;;;;;;16.00;14.50;22.90;36.20;;;;;;109664;1255;49798;-65
2023/03/04 04:34:06;;;;;;;;;17.00;15.00;23.00;36.20;;;;;;109623;1259;49946;-64
2023/03/04 04:36:33;;;;;;;;;15.00;13.00;23.10;36.20;;;;;;109740;1255;46955;-65
2023/03/04 04:38:59;;;;;;;;;21.00;17.00;23.20;36.20;;;;;;109900;1259;55541;-65
2023/03/04 04:41:29;;;;;;;;;17.00;15.00;23.30;36.40;;;;;;109712;1260;54750;-65
2023/03/04 04:43:55;;;;;;;;;15.67;12.33;23.40;36.40;;;;;;109618;1259;49790;-65
2023/03/04 04:46:21;;;;;;;;;21.50;16.00;23.50;36.40;;;;;;109782;1260;49551;-69
2023/03/04 04:48:48;;;;;;;;;18.00;13.00;23.70;36.30;;;;;;109718;1260;45933;-68
2023/03/04 04:51:15;;;;;;;;;16.00;13.00;23.80;36.70;;;;;;109826;1260;55554;-69
2023/03/04 04:53:41;;;;;;;;;17.50;15.00;23.90;36.70;;;;;;109681;1257;54196;-73
2023/03/04 04:56:19;;;;;;;;;16.00;15.00;24.00;36.80;;;;;;109820;1260;48968;-71
2023/03/04 04:58:46;;;;;;;;;20.50;16.50;24.20;37.00;;;;;;109700;1255;50649;-69
2023/03/04 05:01:12;;;;;;;;;17.33;16.00;24.30;36.70;;;;;;109580;1255;45939;-74
2023/03/04 05:03:40;;;;;;;;;37.00;32.00;24.40;36.70;;;;;;109747;1260;56086;-72
2023/03/04 05:06:08;;;;;;;;;36.00;32.00;24.50;32.50;;;;;;109683;1255;54715;-70
2023/03/04 05:08:35;;;;;;;;;41.00;34.00;24.60;29.30;;;;;;109656;1259;50226;-66
2023/03/04 05:11:02;;;;;;;;;46.00;35.00;24.50;28.60;;;;;;109558;1255;50404;-65
2023/03/04 05:13:28;;;;;;;;;32.00;27.00;24.40;28.30;;;;;;109691;1257;46575;-67
2023/03/04 05:15:55;;;;;;;;;31.00;28.00;24.30;28.80;;;;;;109825;1255;55545;-68
2023/03/04 05:18:23;;;;;;;;;34.00;30.00;24.20;29.60;;;;;;109661;1257;54350;-68
2023/03/04 05:20:54;;;;;;;;;29.50;26.50;24.10;30.00;;;;;;109667;1259;50129;-67
2023/03/04 05:23:21;;;;;;;;;32.00;30.00;24.10;30.20;;;;;;109873;1255;49920;-64
2023/03/04 05:25:47;;;;;;;;;34.50;29.00;24.10;29.00;;;;;;109601;1257;45652;-67
2023/03/04 05:28:15;;;;;;;;;32.50;30.00;24.10;28.80;;;;;;109762;1256;55595;-64
2023/03/04 05:30:42;;;;;;;;;30.50;24.50;24.10;29.50;;;;;;109574;1260;53962;-71
2023/03/04 05:33:10;;;;;;;;;36.00;30.00;24.10;30.00;;;;;;110156;1255;49407;-66
2023/03/04 05:35:38;;;;;;;;;36.00;32.33;24.10;29.20;;;;;;109761;1259;49534;-63
2023/03/04 05:38:05;;;;;;;;;39.00;33.00;24.20;27.90;;;;;;109618;1259;46029;-63
2023/03/04 05:40:32;;;;;;;;;32.67;31.00;24.10;27.30;;;;;;109862;1260;56030;-67
2023/03/04 05:42:58;;;;;;;;;31.00;29.00;24.00;28.00;;;;;;109666;1259;53421;-66
2023/03/04 05:45:25;;;;;;;;;37.00;32.00;24.00;29.20;;;;;;109593;1260;49559;-66
2023/03/04 05:47:53;;;;;;;;;36.00;31.50;23.90;29.80;;;;;;109624;1259;49018;-66
2023/03/04 05:50:20;;;;;;;;;35.00;30.00;23.90;30.00;;;;;;109697;1260;45227;-67
2023/03/04 05:52:47;;;;;;;;;33.00;30.00;23.90;30.00;;;;;;109722;1260;55835;-67
2023/03/04 05:55:14;;;;;;;;;35.00;30.00;23.80;30.00;;;;;;109760;1255;53816;-66
2023/03/04 05:57:41;;;;;;;;;32.00;28.00;23.90;30.30;;;;;;109825;1257;49813;-67
2023/03/04 06:00:08;;;;;;;;;29.67;26.00;23.90;30.40;;;;;;109755;1260;49560;-66
2023/03/04 06:02:36;;;;;;;;;30.00;26.00;23.90;30.50;;;;;;109646;1258;45311;-66
2023/03/04 06:05:03;;;;;;;;;25.50;24.00;23.90;31.20;;;;;;109678;1259;55829;-67
2023/03/04 06:07:30;;;;;;;;;33.00;26.50;23.90;30.70;;;;;;109854;1260;53624;-68
2023/03/04 06:09:56;;;;;;;;;27.00;25.00;23.90;30.90;;;;;;109854;1260;49322;-68
2023/03/04 06:12:22;;;;;;;;;27.00;25.00;23.90;31.00;;;;;;109481;1255;49457;-68
2023/03/04 06:14:49;;;;;;;;;30.00;24.00;24.00;31.10;;;;;;109566;1257;46343;-66
2023/03/04 06:17:15;;;;;;;;;26.00;23.50;24.00;30.80;;;;;;109824;1255;55871;-67
2023/03/04 06:19:41;;;;;;;;;31.50;30.00;23.90;30.70;;;;;;109672;1259;54481;-67
2023/03/04 06:22:08;;;;;;;;;32.00;27.00;24.00;31.20;;;;;;109608;1256;49364;-67
2023/03/04 06:24:35;;;;;;;;;28.00;23.00;23.90;31.20;;;;;;109643;1259;49796;-67
2023/03/04 06:27:02;;;;;;;;;22.67;21.33;24.00;31.30;;;;;;109551;1255;46784;-67
2023/03/04 06:29:28;;;;;;;;;28.00;26.00;24.00;31.30;;;;;;109568;1260;57221;-67
2023/03/04 06:31:54;;;;;;;;;33.50;27.00;24.00;31.20;;;;;;109697;1255;54003;-67
2023/03/04 06:34:21;;;;;;;;;30.00;25.00;24.00;31.20;;;;;;109727;1259;50697;-68
2023/03/04 06:36:47;;;;;;;;;27.67;24.33;24.00;31.20;;;;;;109734;1260;49630;-68
2023/03/04 06:39:14;;;;;;;;;36.00;28.00;24.00;31.10;;;;;;109753;1259;46132;-68
2023/03/04 06:41:40;;;;;;;;;24.50;23.00;24.00;31.10;;;;;;109672;1255;55125;-68
2023/03/04 06:44:06;;;;;;;;;23.00;21.50;23.90;31.10;;;;;;109649;1260;53906;-68
2023/03/04 06:46:33;;;;;;;;;26.00;22.00;23.90;31.10;;;;;;109568;1260;49814;-68
2023/03/04 06:49:00;;;;;;;;;25.67;22.00;23.90;31.10;;;;;;109534;1261;49524;-68
2023/03/04 06:51:27;;;;;;;;;25.00;22.00;23.90;31.20;;;;;;109659;1260;45139;-66
2023/03/04 06:53:54;;;;;;;;;24.00;23.00;24.00;31.30;;;;;;109519;1261;55812;-68
2023/03/04 06:56:20;;;;;;;;;22.50;20.50;23.90;31.40;;;;;;109687;1255;54111;-66
2023/03/04 06:58:46;;;;;;;;;23.00;22.00;23.90;31.60;;;;;;109597;1255;50175;-66
2023/03/04 07:01:22;;;;;;;;;30.00;24.00;24.00;31.80;;;;;;109665;1260;49968;-67
2023/03/04 07:03:50;;;;;;;;;30.00;23.50;24.00;32.10;;;;;;109620;1259;46806;-67
2023/03/04 07:06:19;;;;;;;;;25.00;23.00;24.00;31.90;;;;;;105763;1257;5069843;-66
2023/03/04 07:08:46;;;;;;;;;24.75;20.75;24.00;32.10;;;;;;109806;1255;54790;-67
2023/03/04 07:11:14;;;;;;;;;26.50;22.50;24.00;31.90;;;;;;109750;1255;49727;-66
2023/03/04 07:13:40;;;;;;;;;29.00;25.00;24.00;32.10;;;;;;109654;1255;50222;-68
2023/03/04 07:16:12;;;;;;;;;24.50;22.00;24.00;31.80;;;;;;109724;1255;46021;-68
2023/03/04 07:18:39;;;;;;;;;21.50;20.50;24.10;31.70;;;;;;109664;1255;56583;-66
2023/03/04 07:21:06;;;;;;;;;25.50;22.50;24.10;31.60;;;;;;109680;1255;53651;-67
2023/03/04 07:23:33;;;;;;;;;24.00;20.00;24.10;31.50;;;;;;109782;1255;49296;-67
2023/03/04 07:26:00;;;;;;;;;24.00;22.00;24.10;31.50;;;;;;109768;1260;49060;-66
2023/03/04 07:28:26;;;;;;;;;20.00;18.00;24.10;32.00;;;;;;109600;1255;45971;-69
2023/03/04 07:30:52;;;;;;;;;25.50;22.00;24.10;31.40;;;;;;109606;1255;56187;-65
2023/03/04 07:33:19;;;;;;;;;25.00;23.00;24.10;31.40;;;;;;109635;1255;53337;-65
2023/03/04 07:35:45;;;;;;;;;26.00;22.33;24.10;31.60;;;;;;109502;1260;49500;-67
2023/03/04 07:38:11;;;;;;;;;30.00;25.00;24.20;31.60;;;;;;109564;1259;49575;-64
2023/03/04 07:40:38;;;;;;;;;31.50;26.50;24.10;32.00;;;;;;109605;1260;45446;-65
2023/03/04 07:43:04;;;;;;;;;;;24.20;32.00;;;;;;109689;1260;56279;-66
2023/03/04 07:45:30;;;;;;;;;37.00;30.00;24.20;32.30;;;;;;109667;1255;53875;-68
2023/03/04 07:47:57;;;;;;;;;33.00;27.00;24.20;32.10;;;;;;109597;1258;48240;-70
2023/03/04 07:50:23;;;;;;;;;36.00;26.00;24.20;32.10;;;;;;109682;1255;50395;-68
2023/03/04 07:52:50;;;;;;;;;27.00;25.00;24.20;32.60;;;;;;109805;1261;45314;-69
2023/03/04 07:55:17;;;;;;;;;34.00;31.00;24.20;32.20;;;;;;109861;1260;56067;-67
2023/03/04 07:57:45;;;;;;;;;28.67;23.00;24.20;31.60;;;;;;109769;1260;54199;-66
2023/03/04 08:00:14;;;;;;;;;38.00;27.00;24.20;32.20;;;;;;109725;1260;48995;-68
2023/03/04 08:02:41;;;;;;;;;24.50;21.00;24.30;32.10;;;;;;109669;1260;49101;-68
2023/03/04 08:05:08;;;;;;;;;23.50;21.00;24.30;32.30;;;;;;109603;1256;46099;-69
2023/03/04 08:07:34;;;;;;;;;30.50;22.00;24.30;32.10;;;;;;109614;1258;56644;-67
2023/03/04 08:10:01;;;;;;;;;25.00;23.00;24.40;32.10;;;;;;109621;1257;54225;-67
2023/03/04 08:12:28;;;;;;;;;25.00;21.00;24.40;32.10;;;;;;109650;1258;50021;-67
2023/03/04 08:14:54;;;;;;;;;30.00;25.00;24.40;32.10;;;;;;109383;1264;49119;-68
2023/03/04 08:17:21;;;;;;;;;30.00;23.50;24.40;32.00;;;;;;109759;1259;45517;-68
2023/03/04 08:19:47;;;;;;;;;32.00;26.00;24.40;32.00;;;;;;109611;1255;55272;-67
2023/03/04 08:22:13;;;;;;;;;26.00;24.50;24.40;32.00;;;;;;109640;1255;53754;-68
2023/03/04 08:24:39;;;;;;;;;26.00;22.00;24.50;32.10;;;;;;109600;1256;49938;-69
2023/03/04 08:27:06;;;;;;;;;27.00;20.00;24.50;31.60;;;;;;109549;1258;50735;-67
2023/03/04 08:29:32;;;;;;;;;22.00;20.50;24.60;32.10;;;;;;109589;1257;45519;-69
2023/03/04 08:31:58;;;;;;;;;24.00;19.00;24.60;32.10;;;;;;109662;1256;55198;-67
2023/03/04 08:34:26;;;;;;;;;25.50;20.00;24.60;32.30;;;;;;109639;1255;53711;-67
2023/03/04 08:36:53;;;;;;;;;25.00;20.00;24.60;32.30;;;;;;109341;1260;49406;-69
2023/03/04 08:39:19;;;;;;;;;23.50;22.00;24.70;32.10;;;;;;109635;1258;50591;-68
2023/03/04 08:41:46;;;;;;;;;27.00;20.67;24.70;32.30;;;;;;109606;1260;45398;-67
2023/03/04 08:44:13;;;;;;;;;31.00;24.50;24.70;32.50;;;;;;109703;1261;55546;-68
2023/03/04 08:46:41;;;;;;;;;23.00;21.00;24.80;32.40;;;;;;109646;1255;53819;-68
2023/03/04 08:49:10;;;;;;;;;24.00;21.00;24.80;32.10;;;;;;109583;1257;50693;-67
2023/03/04 08:51:36;;;;;;;;;28.00;19.50;24.90;32.20;;;;;;109690;1259;48844;-67
2023/03/04 08:54:04;;;;;;;;;26.33;24.67;24.90;32.40;;;;;;109697;1255;46171;-67
2023/03/04 08:56:30;;;;;;;;;23.00;21.50;24.90;32.10;;;;;;109579;1258;56127;-67
2023/03/04 08:58:57;;;;;;;;;24.00;18.50;24.90;32.10;;;;;;109641;1256;53790;-67
2023/03/04 09:01:24;;;;;;;;;19.00;18.00;25.00;32.40;;;;;;109617;1257;49231;-68
2023/03/04 09:03:50;;;;;;;;;24.50;20.50;25.00;32.20;;;;;;109716;1260;48857;-67
2023/03/04 09:06:17;;;;;;;;;24.00;19.00;25.00;32.30;;;;;;109597;1259;46222;-67
2023/03/04 09:08:45;;;;;;;;;24.00;20.00;25.10;32.10;;;;;;109601;1262;56107;-68
2023/03/04 09:11:12;;;;;;;;;19.00;15.00;25.10;32.10;;;;;;109645;1260;54384;-67
2023/03/04 09:13:38;;;;;;;;;25.00;20.50;25.20;32.20;;;;;;109594;1257;49461;-67
2023/03/04 09:16:13;;;;;;;;;19.00;18.00;25.20;32.20;;;;;;109636;1260;49884;-68
2023/03/04 09:18:40;;;;;;;;;26.50;23.00;25.20;32.10;;;;;;109627;1260;45734;-68
2023/03/04 09:21:07;;;;;;;;;19.00;17.67;25.30;32.20;;;;;;109628;1260;56047;-68
2023/03/04 09:23:34;;;;;;;;;19.25;17.50;25.30;32.10;;;;;;109571;1260;53560;-67
2023/03/04 09:26:01;;;;;;;;;22.00;18.00;25.30;32.10;;;;;;109634;1256;49774;-68
2023/03/04 09:28:27;;;;;;;;;25.00;18.00;25.40;32.10;;;;;;109690;1258;49824;-68
2023/03/04 09:30:53;;;;;;;;;16.00;15.00;25.40;32.10;;;;;;109710;1258;45705;-67
2023/03/04 09:33:19;;;;;;;;;20.00;19.00;25.50;32.40;;;;;;109702;1258;56054;-68
2023/03/04 09:35:47;;;;;;;;;21.00;18.00;25.50;32.40;;;;;;109741;1259;55023;-67
2023/03/04 09:38:13;;;;;;;;;19.50;17.00;25.50;32.10;;;;;;109781;1259;49188;-67
2023/03/04 09:40:43;;;;;;;;;22.00;18.00;25.60;32.30;;;;;;109944;1261;49633;-67
2023/03/04 09:43:30;;;;;;;;;19.00;18.00;25.60;32.40;;;;;;109663;1256;45486;-66
2023/03/04 09:46:07;;;;;;;;;18.50;17.00;25.70;32.20;;;;;;109600;1257;55594;-67
2023/03/04 09:48:41;;;;;;;;;17.00;16.00;25.70;32.40;;;;;;109669;1259;53848;-68
2023/03/04 09:51:19;;;;;;;;;23.00;20.00;25.80;32.40;;;;;;109635;1255;49006;-66
2023/03/04 09:53:56;;;;;;;;;20.50;15.50;25.90;32.00;;;;;;109654;1255;49554;-68
2023/03/04 09:56:22;;;;;;;;;21.50;16.50;25.90;32.40;;;;;;109781;1260;45388;-68
2023/03/04 09:58:51;;;;;;;;;23.50;21.00;25.90;32.30;;;;;;109841;1260;55951;-67
2023/03/04 10:01:43;;;;;;;;;21.00;18.00;25.90;32.50;;;;;;109688;1260;54526;-71
2023/03/04 10:04:14;;;;;;;;;23.00;22.00;25.90;32.50;;;;;;109688;1255;49753;-73
2023/03/04 10:06:41;;;;;;;;;24.00;19.00;26.00;33.20;;;;;;109621;1260;50086;-71
2023/03/04 10:09:15;;;;;;;;;20.00;18.00;26.00;33.00;;;;;;109884;1255;45410;-72
2023/03/04 10:11:47;;;;;;;;;21.00;18.00;26.00;32.90;;;;;;109982;1255;55918;-73
2023/03/04 10:14:19;;;;;;;;;26.00;20.50;26.00;33.20;;;;;;109774;1260;55216;-73
2023/03/04 10:16:56;;;;;;;;;20.00;19.00;26.10;33.20;;;;;;109631;1259;50122;-71
2023/03/04 10:19:47;;;;;;;;;20.00;19.00;26.10;33.40;;;;;;109570;1260;49330;-70
2023/03/04 10:22:27;;;;;;;;;24.00;18.00;26.20;33.40;;;;;;109620;1255;45273;-70
2023/03/04 10:24:56;;;;;;;;;26.00;18.00;26.20;33.40;;;;;;109628;1260;56176;-70
2023/03/04 10:27:23;;;;;;;;;24.00;18.00;26.30;33.20;;;;;;109617;1258;54231;-70
2023/03/04 10:29:50;;;;;;;;;23.50;19.50;26.30;33.30;;;;;;109609;1260;50202;-70
2023/03/04 10:32:19;;;;;;;;;23.00;19.00;26.30;33.20;;;;;;109747;1259;50767;-71
2023/03/04 10:34:46;;;;;;;;;20.00;19.00;26.40;33.30;;;;;;109740;1255;45419;-69
2023/03/04 10:37:12;;;;;;;;;25.67;20.00;26.40;33.40;;;;;;109637;1260;56853;-72
2023/03/04 10:39:44;;;;;;;;;25.67;23.67;26.40;33.10;;;;;;109653;1255;54077;-72
2023/03/04 10:42:13;;;;;;;;;18.00;16.00;26.50;33.10;;;;;;109705;1260;49664;-70
2023/03/04 10:44:54;;;;;;;;;24.33;19.00;26.50;33.10;;;;;;109641;1260;50586;-70
2023/03/04 10:47:30;;;;;;;;;22.00;21.00;26.50;32.90;;;;;;109683;1255;46857;-71
2023/03/04 10:49:58;;;;;;;;;21.00;18.50;26.50;32.80;;;;;;109705;1255;55161;-70
2023/03/04 10:52:28;;;;;;;;;24.50;20.00;26.60;33.00;;;;;;109562;1260;53225;-70
2023/03/04 10:55:00;;;;;;;;;25.50;20.00;26.60;32.90;;;;;;109641;1260;49656;-72
2023/03/04 10:57:33;;;;;;;;;25.00;22.00;26.70;33.20;;;;;;109554;1262;49204;-70
2023/03/04 11:00:30;;;;;;;;;20.00;19.00;26.70;32.60;;;;;;109792;1255;45586;-72
2023/03/04 11:03:17;;;;;;;;;22.00;19.00;26.70;32.50;;;;;;109778;1255;55973;-71
2023/03/04 11:05:43;;;;;;;;;21.00;16.00;26.80;32.50;;;;;;109639;1258;54142;-72
2023/03/04 11:08:18;;;;;;;;;19.00;16.00;26.90;32.40;;;;;;109760;1259;49399;-71
2023/03/04 11:10:45;;;;;;;;;18.50;17.00;26.90;32.30;;;;;;109617;1256;50029;-72
2023/03/04 11:13:16;;;;;;;;;21.00;19.00;27.00;31.90;;;;;;109418;1255;46712;-71
2023/03/04 11:15:56;;;;;;;;;17.50;14.00;27.00;32.20;;;;;;109635;1255;56532;-72
2023/03/04 11:18:47;;;;;;;;;20.00;18.00;27.10;32.20;;;;;;109665;1255;54034;-71
2023/03/04 11:21:20;;;;;;;;;23.00;21.00;27.00;32.00;;;;;;109494;1256;49667;-71
2023/03/04 11:23:53;;;;;;;;;26.00;21.00;27.10;32.10;;;;;;109757;1257;51086;-70
2023/03/04 11:26:25;;;;;;;;;;;27.10;32.00;;;;;;109712;1257;46328;-70
2023/03/04 11:29:15;;;;;;;;;22.00;19.00;27.20;32.20;;;;;;109875;1256;56440;-71
2023/03/04 11:31:49;;;;;;;;;20.00;19.00;27.20;31.90;;;;;;109661;1256;54440;-70
2023/03/04 11:34:28;;;;;;;;;22.00;21.00;27.30;32.10;;;;;;109574;1259;49065;-72
2023/03/04 11:37:09;;;;;;;;;20.00;19.00;27.40;31.90;;;;;;109593;1259;49946;-71
2023/03/04 11:39:40;;;;;;;;;19.00;18.00;27.40;32.00;;;;;;109627;1255;45584;-72
2023/03/04 11:42:36;;;;;;;;;19.75;17.25;27.40;31.90;;;;;;109559;1255;55934;-69
2023/03/04 11:45:04;;;;;;;;;20.00;17.00;27.40;31.80;;;;;;109661;1255;53711;-73
2023/03/04 11:47:48;;;;;;;;;23.00;19.00;27.40;31.90;;;;;;109500;1261;49246;-72
2023/03/04 11:50:26;;;;;;;;;20.00;19.00;27.50;31.90;;;;;;109591;1259;49509;-73
2023/03/04 11:53:19;;;;;;;;;20.00;18.00;27.50;31.70;;;;;;109571;1261;45584;-72
2023/03/04 11:55:57;;;;;;;;;20.00;19.00;27.50;31.80;;;;;;109768;1259;55249;-73
2023/03/04 11:59:06;;;;;;;;;24.00;21.00;27.50;31.80;;;;;;109700;1255;53760;-69
2023/03/04 12:01:59;;;;;;;;;27.50;25.00;27.50;32.00;;;;;;109552;1260;50425;-69
2023/03/04 12:04:31;;;;;;;;;29.00;27.50;27.50;33.40;;;;;;109605;1260;49337;-68
2023/03/04 12:07:16;;;;;;;;;28.50;25.50;27.50;34.60;;;;;;109613;1255;46864;-69
2023/03/04 12:09:45;;;;;;;;;23.50;22.00;27.40;34.90;;;;;;109598;1261;55913;-69
2023/03/04 12:12:18;;;;;;;;;26.00;24.00;27.40;35.10;;;;;;109640;1255;54568;-69
2023/03/04 12:15:21;;;;;;;;;24.00;23.00;27.30;34.60;;;;;;109626;1259;51110;-69
2023/03/04 12:17:48;;;;;;;;;25.00;22.00;27.30;34.70;;;;;;109635;1255;50421;-69
2023/03/04 12:20:59;;;;;;;;;22.67;21.67;27.30;34.80;;;;;;109652;1259;45689;-69
2023/03/04 12:24:20;;;;;;;;;25.00;23.00;27.20;34.70;;;;;;109650;1257;55426;-69
2023/03/04 12:26:58;;;;;;;;;;;27.10;34.50;;;;;;108704;1264;53611;-68
2023/03/04 12:29:34;;;;;;;;;33.00;14.50;27.20;34.70;;;;;;109631;1255;49423;-70